aviador You're here:

PAVL Decoded Metar

KIVALINA in AK, USA
Report Time2017-08-18 16:15:00
UTC Time2017-08-18 16:28:34
Flight Rules unknown UNKNOWN
Wind350° at 07 kt
W.Decomp.*RWY 30: 5.7 kt HW 4.0 kt RCW
W.Rank350° ranks 16
Current wind is below 350° avg. (11.4)
VisibilityN/A
Phenomena:N/A
Clouds:Few 013 Hf
Broken 031 Hf
Overcast 055 Hf
Expected CloudBase > 800 ft AGL from Temp-Dew spread
Ceiling3,100 ft
Temp04°C (ISA -11)
Dew Point02°C (87% RH)
AAT-0.2°C
QNH1000 hPa
Density Alt-778 ft
Elevation10 ft
Report Wrong Elevation
Raw Report
PAVL 181615Z AUTO 35007KT FEW013 BKN031 OVC055 04/02 A2953 RMK AO2
RAE10 T00440022 TSNO PNO $=

Extra information for PAVL:More info

Metar Taf Metar & Taf Last 4 Metars F.Rules Stats Wind Profile Meteogram Temp Stats Airport Information Weather charts Add Link Nearby VenuesMetar ALERT Operation Metar Decoded Social comments

AIRNAV info for PAVL